Time;durP1;ratioP1;P1;durP2;ratioP2;P2;SDS_P1;SDS_P2;PMS_P1;PMS_P2;Temp;Humidity;BMP_temperature;BMP_pressure;BME280_temperature;BME280_humidity;BME280_pressure;Samples;Min_cycle;Max_cycle;Signal;HPM_P1;HPM_P2
2022/11/05 00:11:00;;;;;;;32.05;20.48;;;;;;;10.45;87.95;99855.23;1726371;82;26406;-80
2022/11/05 00:19:05;;;;;;;34.83;20.45;;;;;;;10.40;88.37;99850.98;1697725;84;25780;-79
2022/11/05 00:26:51;;;;;;;36.75;20.72;;;;;;;10.39;88.68;99848.02;1714180;82;26094;-78
2022/11/05 00:29:17;;;;;;;35.85;20.65;;;;;;;10.35;88.76;99844.91;1699769;84;27479;-78
2022/11/05 00:31:44;;;;;;;33.10;20.25;;;;;;;10.32;88.75;99843.16;1713929;83;25721;-78
2022/11/05 00:34:11;;;;;;;33.73;20.45;;;;;;;10.30;88.88;99835.84;1720534;82;26429;-78
2022/11/05 00:36:37;;;;;;;34.83;20.68;;;;;;;10.28;88.92;99840.58;1696456;83;26276;-79
2022/11/05 00:39:05;;;;;;;37.93;21.87;;;;;;;10.24;89.01;99833.98;1701248;82;26643;-79
2022/11/05 00:41:31;;;;;;;36.98;21.02;;;;;;;10.26;89.18;99841.30;1703635;83;27443;-78
2022/11/05 00:46:42;;;;;;;30.57;19.42;;;;;;;10.26;89.35;99845.31;1702252;83;25879;-79
2022/11/05 00:52:54;;;;;;;33.28;20.48;;;;;;;10.23;89.40;99839.84;1699266;83;25967;-79
2022/11/05 00:54:21;;;;;;;36.05;20.50;;;;;;;10.24;89.45;99842.84;1680815;85;27437;-79
2022/11/05 00:56:48;;;;;;;30.90;19.12;;;;;;;10.22;89.55;99836.88;1688532;84;25774;-79
2022/11/05 00:59:14;;;;;;;30.30;19.00;;;;;;;10.20;89.53;99836.22;1717848;82;25892;-79
2022/11/05 01:01:40;;;;;;;35.85;20.88;;;;;;;10.21;89.61;99829.02;1666919;83;25773;-79
2022/11/05 01:04:06;;;;;;;37.28;21.05;;;;;;;10.24;89.74;99832.65;1715604;82;25318;-78
2022/11/05 01:06:32;;;;;;;32.88;21.10;;;;;;;10.22;89.78;99832.86;1711564;82;27453;-79
2022/11/05 01:08:59;;;;;;;30.05;19.70;;;;;;;10.22;89.64;99838.72;1708824;82;25858;-78
2022/11/05 01:11:35;;;;;;;38.40;20.92;;;;;;;10.20;89.78;99836.77;1710191;82;26429;-79
2022/11/05 01:14:12;;;;;;;37.78;20.20;;;;;;;10.20;89.90;99837.56;1711506;83;26510;-79
2022/11/05 01:16:39;;;;;;;36.93;20.40;;;;;;;10.17;89.93;99846.52;1711011;83;25880;-79
2022/11/05 01:19:09;;;;;;;35.70;21.82;;;;;;;10.14;90.11;99844.27;1712132;83;27455;-79
2022/11/05 01:21:35;;;;;;;34.75;21.12;;;;;;;10.13;90.20;99842.09;1709424;83;26117;-79
2022/11/05 01:24:03;;;;;;;36.38;21.48;;;;;;;10.12;90.30;99845.78;1706456;83;25835;-79
2022/11/05 01:26:29;;;;;;;39.33;21.35;;;;;;;10.11;90.39;99854.86;1711097;83;25738;-79
2022/11/05 01:29:00;;;;;;;37.70;20.72;;;;;;;10.11;90.52;99855.36;1724242;82;25815;-78
2022/11/05 01:31:27;;;;;;;31.35;20.35;;;;;;;10.05;90.50;99855.09;1701431;83;28305;-78
2022/11/05 01:33:54;;;;;;;38.42;20.97;;;;;;;10.02;90.64;99850.17;1705568;83;25964;-79
2022/11/05 01:36:20;;;;;;;40.55;22.20;;;;;;;10.03;90.93;99851.80;1692512;84;25917;-80
2022/11/05 01:38:46;;;;;;;36.33;20.75;;;;;;;10.02;90.95;99863.55;1718291;82;25702;-79
2022/11/05 01:41:13;;;;;;;34.70;20.82;;;;;;;10.01;91.06;99865.06;1707327;83;25799;-78
2022/11/05 01:43:50;;;;;;;34.15;19.17;;;;;;;10.01;91.19;99865.89;1705644;83;27459;-79
2022/11/05 01:46:36;;;;;;;35.40;19.85;;;;;;;10.01;91.31;99866.40;1699287;82;26418;-78
2022/11/05 01:49:13;;;;;;;38.28;20.40;;;;;;;9.99;91.39;99865.27;1683772;84;25844;-78
2022/11/05 01:51:41;;;;;;;31.25;20.97;;;;;;;10.00;91.57;99875.47;1683703;84;26607;-78
2022/11/05 01:54:12;;;;;;;32.28;20.43;;;;;;;9.97;91.63;99873.18;1688495;84;25885;-78
2022/11/05 01:56:43;;;;;;;33.38;22.77;;;;;;;9.96;91.78;99872.37;1685650;84;28982;-78
2022/11/05 01:59:21;;;;;;;30.97;21.17;;;;;;;9.97;91.97;99878.02;1687404;84;25829;-78
2022/11/05 02:01:47;;;;;;;32.70;22.15;;;;;;;9.98;91.96;99877.02;1679672;84;26351;-77
2022/11/05 02:04:38;;;;;;;44.75;23.55;;;;;;;9.98;92.05;99874.34;1689605;84;25885;-77
2022/11/05 02:07:05;;;;;;;37.17;22.98;;;;;;;9.98;92.00;99881.03;1688119;84;25924;-79
2022/11/05 02:09:46;;;;;;;39.73;23.52;;;;;;;9.97;92.17;99876.69;1680292;84;27384;-78
2022/11/05 02:12:13;;;;;;;39.08;22.98;;;;;;;9.96;92.24;99875.56;1686882;84;27148;-78
2022/11/05 02:14:39;;;;;;;38.80;23.27;;;;;;;9.96;92.37;99868.88;1684926;84;26474;-78
2022/11/05 02:17:20;;;;;;;43.13;24.45;;;;;;;9.98;92.44;99870.83;1683382;84;26239;-79
2022/11/05 02:20:05;;;;;;;40.88;24.10;;;;;;;10.00;92.42;99871.45;1676910;84;26551;-78
2022/11/05 02:22:58;;;;;;;42.67;23.83;;;;;;;9.97;92.32;99871.84;1680965;84;27482;-78
2022/11/05 02:25:54;;;;;;;42.58;23.80;;;;;;;9.96;92.47;99869.70;1683096;84;26329;-79
2022/11/05 02:29:03;;;;;;;39.10;24.02;;;;;;;9.97;92.59;99878.53;1713206;82;25768;-78
2022/11/05 02:32:04;;;;;;;41.45;25.32;;;;;;;9.95;92.65;99877.41;1676519;83;26456;-78
2022/11/05 02:34:56;;;;;;;42.20;24.82;;;;;;;9.96;92.74;99878.23;1704853;83;25753;-78
2022/11/05 02:37:39;;;;;;;40.00;23.80;;;;;;;9.94;92.62;99881.09;1713512;82;27526;-79
2022/11/05 02:40:23;;;;;;;36.42;22.70;;;;;;;9.94;92.85;99881.63;1714878;82;26561;-79
2022/11/05 02:43:16;;;;;;;47.90;23.87;;;;;;;9.94;92.94;99878.41;1693094;82;25802;-80
2022/11/05 02:46:02;;;;;;;37.78;23.47;;;;;;;9.96;93.00;99887.09;1701722;83;26803;-79
2022/11/05 02:48:49;;;;;;;35.25;22.77;;;;;;;9.96;92.92;99885.75;1694568;82;25927;-79
2022/11/05 02:51:27;;;;;;;34.08;22.90;;;;;;;9.97;92.98;99885.22;1713175;82;28303;-79
2022/11/05 02:54:16;;;;;;;40.43;22.42;;;;;;;9.96;92.97;99886.27;1679147;84;25708;-79
2022/11/05 02:56:50;;;;;;;37.85;22.35;;;;;;;9.97;93.02;99887.89;1686774;84;26446;-79
2022/11/05 02:59:16;;;;;;;38.05;22.13;;;;;;;9.96;92.98;99884.42;1691793;84;25794;-79
2022/11/05 03:01:44;;;;;;;38.02;22.85;;;;;;;9.96;92.97;99880.91;1686327;84;25791;-79
2022/11/05 03:04:15;;;;;;;38.95;22.73;;;;;;;9.94;92.88;99893.66;1679113;84;27446;-79
2022/11/05 03:07:17;;;;;;;37.33;22.60;;;;;;;9.93;92.97;99902.70;1697366;84;25834;-79
2022/11/05 03:10:05;;;;;;;33.13;21.95;;;;;;;9.91;93.07;99904.24;1686672;84;25826;-79
2022/11/05 03:12:52;;;;;;;33.02;21.12;;;;;;;9.90;93.13;99911.94;1695002;84;25958;-79
2022/11/05 03:15:47;;;;;;;42.70;25.48;;;;;;;9.91;93.29;99908.26;1696344;84;25799;-79
2022/11/05 03:18:31;;;;;;;36.73;22.42;;;;;;;9.94;93.39;99910.52;1688738;84;28862;-80
2022/11/05 03:21:06;;;;;;;41.02;23.75;;;;;;;9.94;93.43;99909.71;1687163;84;25906;-79
2022/11/05 03:23:55;;;;;;;39.18;22.82;;;;;;;9.96;93.47;99913.02;1691704;84;26016;-80
2022/11/05 03:26:54;;;;;;;41.05;23.70;;;;;;;9.94;93.39;99912.39;1683046;84;25756;-79
2022/11/05 03:29:25;;;;;;;41.63;25.05;;;;;;;9.92;93.46;99909.89;1678113;84;26648;-79
2022/11/05 03:31:55;;;;;;;38.50;23.20;;;;;;;9.94;93.55;99914.53;1692309;84;27456;-78
2022/11/05 03:34:29;;;;;;;46.10;26.10;;;;;;;9.91;93.35;99918.13;1708552;83;25815;-79
2022/11/05 03:36:56;;;;;;;42.05;24.02;;;;;;;9.90;93.53;99916.48;1714461;82;26378;-79
2022/11/05 03:39:30;;;;;;;38.53;24.60;;;;;;;9.86;93.52;99908.52;1707638;82;26116;-78
2022/11/05 03:42:00;;;;;;;41.73;25.72;;;;;;;9.84;93.73;99918.09;1710873;82;26377;-79
2022/11/05 03:44:31;;;;;;;43.58;24.32;;;;;;;9.84;93.78;99916.75;1674570;84;27445;-79
2022/11/05 03:47:00;;;;;;;;;;;;;;;9.86;93.95;99917.88;1715852;82;26084;-79
2022/11/05 03:49:35;;;;;;;40.73;24.23;;;;;;;9.84;93.88;99926.12;1703630;83;25941;-79
2022/11/05 03:52:09;;;;;;;43.75;24.80;;;;;;;9.84;94.10;99931.97;1694462;83;26223;-79
2022/11/05 03:54:36;;;;;;;44.48;24.60;;;;;;;9.84;94.09;99948.85;1707290;82;26337;-79
2022/11/05 03:57:23;;;;;;;37.17;23.67;;;;;;;9.83;94.11;99947.22;1691402;83;27446;-79
2022/11/05 03:59:50;;;;;;;39.98;22.77;;;;;;;9.85;94.14;99935.80;1693727;83;25838;-78
2022/11/05 04:02:21;;;;;;;41.92;23.85;;;;;;;9.86;94.11;99940.62;1695071;83;25841;-79
2022/11/05 04:04:47;;;;;;;41.05;25.65;;;;;;;9.86;93.94;99947.31;1694510;83;26701;-79
2022/11/05 04:15:28;;;;;;;39.50;23.52;;;;;;;9.85;94.23;99961.72;1714437;82;26397;-78
2022/11/05 04:17:57;;;;;;;37.08;24.52;;;;;;;9.86;94.33;99945.97;1711053;83;25462;-79
2022/11/05 04:25:46;;;;;;;41.42;24.72;;;;;;;9.82;94.25;99957.59;1672569;84;25952;-78
2022/11/05 04:28:14;;;;;;;41.60;25.50;;;;;;;9.83;94.31;99965.94;1677609;84;25805;-77
2022/11/05 04:30:40;;;;;;;33.60;24.37;;;;;;;9.83;94.36;99971.80;1718416;83;26328;-78
2022/11/05 04:33:11;;;;;;;42.25;26.40;;;;;;;9.86;94.45;99982.91;1718228;83;25977;-77
2022/11/05 04:35:46;;;;;;;;;;;;;;;9.88;94.39;99982.20;1723455;82;28627;-78
2022/11/05 04:38:16;;;;;;;42.48;24.25;;;;;;;9.86;94.39;99982.08;1719944;82;25794;-79
2022/11/05 04:40:44;;;;;;;36.88;23.25;;;;;;;9.87;94.50;99986.42;1689913;84;25936;-79
2022/11/05 04:43:16;;;;;;;37.88;23.95;;;;;;;9.90;94.55;99990.86;1665184;83;26456;-79
2022/11/05 04:45:43;;;;;;;40.48;24.05;;;;;;;9.92;94.45;99992.83;1684711;84;26559;-79
2022/11/05 04:48:10;;;;;;;38.53;24.07;;;;;;;9.93;94.48;99983.79;1703076;83;28292;-79
2022/11/05 04:50:36;;;;;;;40.25;23.27;;;;;;;9.95;94.39;99992.95;1686078;84;25930;-79
2022/11/05 04:53:02;;;;;;;39.58;23.38;;;;;;;9.93;94.19;100000.34;1685861;84;25866;-79
2022/11/05 04:55:29;;;;;;;42.90;22.93;;;;;;;9.93;94.33;99999.84;1717843;82;25813;-79
2022/11/05 04:57:55;;;;;;;35.30;22.25;;;;;;;9.94;94.26;100002.02;1688209;83;26534;-79
2022/11/05 05:00:23;;;;;;;46.05;23.55;;;;;;;9.95;94.36;99999.13;1688845;84;27542;-79
2022/11/05 05:02:50;;;;;;;39.45;23.65;;;;;;;9.96;94.21;99995.45;1686916;83;26008;-78
2022/11/05 05:05:16;;;;;;;36.35;22.82;;;;;;;9.96;94.27;99999.45;1715033;83;26545;-79
2022/11/05 05:07:43;;;;;;;35.78;22.67;;;;;;;9.96;94.25;100005.31;1700514;83;26718;-80
2022/11/05 05:10:10;;;;;;;37.90;23.47;;;;;;;9.96;94.22;100010.66;1700881;82;25866;-79
2022/11/05 05:12:36;;;;;;;36.93;22.70;;;;;;;9.96;94.34;100016.84;1675290;83;27471;-79
2022/11/05 05:15:03;;;;;;;38.92;22.67;;;;;;;9.99;94.34;100022.29;1694993;82;25993;-79
2022/11/05 05:17:30;;;;;;;40.63;23.70;;;;;;;10.01;94.33;100025.59;1699356;83;25778;-79
2022/11/05 05:22:41;;;;;;;37.67;22.20;;;;;;;10.00;94.17;100026.64;1705254;83;25827;-79
2022/11/05 05:25:07;;;;;;;44.98;23.57;;;;;;;10.01;94.34;100021.58;1698754;83;27419;-79
2022/11/05 05:27:34;;;;;;;38.42;24.57;;;;;;;10.02;94.29;100032.11;1713643;82;25901;-79
2022/11/05 05:30:00;;;;;;;39.35;22.95;;;;;;;10.03;94.29;100036.92;1710341;82;26494;-80
2022/11/05 05:32:26;;;;;;;38.48;22.75;;;;;;;10.04;94.26;100035.41;1710150;82;25861;-79
2022/11/05 05:34:53;;;;;;;38.85;22.62;;;;;;;10.06;94.24;100033.87;1712437;82;26141;-78
2022/11/05 05:37:19;;;;;;;42.23;23.55;;;;;;;10.05;94.13;100035.71;1713797;82;27435;-79
2022/11/05 05:39:46;;;;;;;36.55;23.42;;;;;;;10.09;94.25;100040.17;1713145;82;26493;-78
2022/11/05 05:42:13;;;;;;;40.05;23.65;;;;;;;10.10;94.19;100043.16;1683284;84;25786;-80
2022/11/05 05:44:40;;;;;;;38.90;23.73;;;;;;;10.10;94.13;100052.52;1689363;84;26487;-80
2022/11/05 05:47:06;;;;;;;39.78;24.18;;;;;;;10.13;94.15;100052.17;1718100;82;26488;-79
2022/11/05 05:49:32;;;;;;;40.10;24.30;;;;;;;10.11;94.09;100056.89;1698270;84;27401;-79
2022/11/05 05:51:59;;;;;;;38.55;23.73;;;;;;;10.12;94.00;100059.03;1701164;84;25787;-79
2022/11/05 05:54:25;;;;;;;39.73;23.70;;;;;;;10.11;94.05;100052.88;1701980;84;26442;-79
2022/11/05 05:56:51;;;;;;;40.35;23.98;;;;;;;10.11;94.00;100052.05;1702252;84;26540;-79
2022/11/05 05:59:18;;;;;;;38.98;23.50;;;;;;;10.09;94.02;100051.69;1695656;84;25868;-79
2022/11/05 06:01:44;;;;;;;39.65;23.10;;;;;;;10.09;94.09;100046.87;1701191;84;27627;-78
2022/11/05 06:04:10;;;;;;;43.17;26.33;;;;;;;10.11;94.18;100047.53;1700846;84;26505;-79
2022/11/05 06:06:36;;;;;;;40.83;24.60;;;;;;;10.14;94.20;100050.33;1702915;84;25910;-79
2022/11/05 06:09:03;;;;;;;42.17;24.80;;;;;;;10.13;94.16;100057.52;1702159;84;26438;-79
2022/11/05 06:11:29;;;;;;;41.73;23.73;;;;;;;10.14;94.10;100066.38;1698724;84;25939;-79
2022/11/05 06:13:56;;;;;;;41.25;24.70;;;;;;;10.12;94.03;100065.73;1697032;84;28637;-79
2022/11/05 06:16:22;;;;;;;41.35;25.02;;;;;;;10.12;94.02;100068.40;1700436;84;26434;-79
2022/11/05 06:18:49;;;;;;;43.58;26.15;;;;;;;10.13;94.08;100062.04;1695872;84;25870;-79
2022/11/05 06:21:17;;;;;;;40.25;25.57;;;;;;;10.14;94.10;100068.52;1701579;83;25465;-79
2022/11/05 06:23:44;;;;;;;39.67;24.18;;;;;;;10.15;94.12;100070.19;1702991;84;25876;-79
2022/11/05 06:26:14;;;;;;;44.25;26.55;;;;;;;10.15;94.17;100081.40;1702761;84;28288;-79
2022/11/05 06:28:42;;;;;;;42.50;25.77;;;;;;;10.15;94.13;100096.12;1702711;84;25955;-78
2022/11/05 06:31:09;;;;;;;42.03;24.95;;;;;;;10.13;94.13;100093.66;1702834;84;25762;-79
2022/11/05 06:33:36;;;;;;;39.50;25.10;;;;;;;10.10;94.16;100087.30;1699953;84;25839;-80
2022/11/05 06:36:05;;;;;;;44.85;25.82;;;;;;;10.12;94.25;100088.47;1701596;84;25740;-79
2022/11/05 06:38:34;;;;;;;38.35;25.50;;;;;;;10.12;94.36;100096.00;1696871;84;27534;-79
2022/11/05 06:41:02;;;;;;;46.92;28.62;;;;;;;10.15;94.36;100088.09;1696200;84;25847;-80
2022/11/05 06:43:29;;;;;;;41.75;26.45;;;;;;;10.15;94.33;100096.95;1696138;84;25721;-80
2022/11/05 06:45:56;;;;;;;36.90;24.90;;;;;;;10.15;94.36;100101.47;1700793;84;26626;-79
2022/11/05 06:48:24;;;;;;;41.30;24.92;;;;;;;10.14;94.34;100104.66;1707946;82;25829;-79
2022/11/05 06:50:52;;;;;;;45.17;26.42;;;;;;;10.13;94.42;100112.38;1721365;82;28602;-79
2022/11/05 06:53:19;;;;;;;45.43;26.15;;;;;;;10.14;94.39;100117.23;1709492;82;25860;-79
2022/11/05 06:55:46;;;;;;;50.92;26.73;;;;;;;10.16;94.55;100119.20;1718271;82;25721;-79
2022/11/05 06:58:14;;;;;;;42.73;27.60;;;;;;;10.19;94.63;100116.95;1696460;84;26283;-80
2022/11/05 07:00:41;;;;;;;40.38;26.40;;;;;;;10.21;94.71;100119.42;1690687;84;25882;-79
2022/11/05 07:03:10;;;;;;;42.48;26.93;;;;;;;10.24;94.77;100122.55;1693225;84;27489;-79
2022/11/05 07:05:42;;;;;;;46.50;27.77;;;;;;;10.24;94.68;100119.05;1702303;84;25886;-79
2022/11/05 07:08:08;;;;;;;54.23;30.27;;;;;;;10.26;94.68;100118.33;1698163;84;25949;-79
2022/11/05 07:10:35;;;;;;;49.42;29.15;;;;;;;10.28;94.73;100106.41;1710247;82;26237;-78
2022/11/05 07:13:01;;;;;;;50.17;28.98;;;;;;;10.31;94.78;100109.21;1664838;84;25902;-76
2022/11/05 07:15:27;;;;;;;47.10;28.35;;;;;;;10.33;94.76;100110.64;1683555;83;27080;-79
2022/11/05 07:17:59;;;;;;;46.23;29.12;;;;;;;10.35;94.77;100113.14;1681927;83;25914;-77
2022/11/05 07:20:26;;;;;;;49.45;28.32;;;;;;;10.35;94.85;100120.64;1691441;83;25809;-78
2022/11/05 07:23:12;;;;;;;48.48;27.85;;;;;;;10.33;94.80;100124.56;1692938;84;26312;-77
2022/11/05 07:25:40;;;;;;;48.08;27.37;;;;;;;10.36;95.08;100132.18;1667175;84;25968;-77
2022/11/05 07:28:08;;;;;;;44.13;28.30;;;;;;;10.40;95.25;100128.09;1691944;84;27463;-77
2022/11/05 07:30:35;;;;;;;45.60;29.32;;;;;;;10.42;95.16;100123.36;1662557;84;25936;-78
2022/11/05 07:33:02;;;;;;;42.75;28.05;;;;;;;10.41;95.21;100127.91;1691629;84;25869;-76
2022/11/05 07:35:29;;;;;;;44.27;28.35;;;;;;;10.42;95.26;100132.23;1679755;84;26250;-77
2022/11/05 07:37:56;;;;;;;43.40;26.73;;;;;;;10.44;95.43;100132.86;1695368;84;25949;-77
2022/11/05 07:40:24;;;;;;;46.05;28.12;;;;;;;10.49;95.55;100138.95;1695655;83;28295;-77
2022/11/05 07:42:54;;;;;;;40.70;26.90;;;;;;;10.51;95.49;100143.61;1693689;83;25853;-76
2022/11/05 07:45:22;;;;;;;43.38;26.00;;;;;;;10.52;95.35;100149.30;1695945;84;25809;-77
2022/11/05 07:48:03;;;;;;;42.60;26.55;;;;;;;10.52;95.47;100155.98;1696662;84;25832;-77
2022/11/05 07:50:35;;;;;;;39.90;24.65;;;;;;;10.53;95.49;100160.30;1697010;84;26746;-76
2022/11/05 07:53:12;;;;;;;54.25;36.60;;;;;;;10.56;95.55;100164.74;1712781;83;27452;-77
2022/11/05 07:55:44;;;;;;;36.25;23.87;;;;;;;10.58;95.75;100174.77;1708394;83;25719;-77
2022/11/05 07:58:11;;;;;;;45.28;25.60;;;;;;;10.63;96.39;100174.16;1699396;83;25857;-77
2022/11/05 08:00:38;;;;;;;41.15;25.30;;;;;;;10.71;96.40;100179.37;1715371;83;25907;-76
2022/11/05 08:03:09;;;;;;;42.62;26.07;;;;;;;10.74;96.04;100185.66;1686146;83;25927;-76
2022/11/05 08:05:37;;;;;;;;;;;;;;;10.76;95.96;100191.14;1714981;82;28317;-76
2022/11/05 08:08:06;;;;;;;39.25;23.05;;;;;;;10.79;95.91;100181.89;1679821;84;26512;-77
2022/11/05 08:10:33;;;;;;;42.13;24.72;;;;;;;10.81;95.89;100187.88;1715270;82;25693;-77
2022/11/05 08:13:00;;;;;;;45.28;24.43;;;;;;;10.85;95.97;100191.30;1688565;83;25833;-77
2022/11/05 08:15:27;;;;;;;43.75;24.35;;;;;;;10.88;95.82;100191.42;1687326;84;26546;-77
2022/11/05 08:17:59;;;;;;;41.25;24.60;;;;;;;10.91;95.74;100183.47;1691525;84;28279;-77
2022/11/05 08:20:26;;;;;;;38.58;25.02;;;;;;;10.92;95.75;100194.02;1687473;83;25819;-76
2022/11/05 08:22:53;;;;;;;33.65;23.45;;;;;;;10.93;95.65;100196.99;1697059;84;26492;-76
2022/11/05 08:25:20;;;;;;;44.42;25.00;;;;;;;10.95;95.61;100195.48;1697546;84;25837;-77
2022/11/05 08:27:47;;;;;;;41.73;25.08;;;;;;;10.96;95.58;100189.07;1699179;83;25770;-76
2022/11/05 08:30:13;;;;;;;38.02;23.38;;;;;;;11.00;95.65;100188.48;1694721;83;27537;-76
2022/11/05 08:32:40;;;;;;;38.85;24.57;;;;;;;11.03;95.69;100185.41;1696290;84;25257;-76
2022/11/05 08:35:06;;;;;;;38.13;23.47;;;;;;;11.07;95.74;100175.95;1691718;83;26121;-76
2022/11/05 08:37:33;;;;;;;39.95;25.35;;;;;;;11.07;95.45;100186.66;1690242;84;26404;-76
2022/11/05 08:39:59;;;;;;;39.13;24.65;;;;;;;11.08;95.61;100186.13;1693675;84;25941;-76
2022/11/05 08:42:25;;;;;;;40.95;24.98;;;;;;;11.14;95.76;100186.16;1692745;84;28661;-76
2022/11/05 08:44:51;;;;;;;42.23;24.92;;;;;;;11.17;95.62;100194.31;1692169;84;25815;-76
2022/11/05 08:47:18;;;;;;;39.63;25.57;;;;;;;11.18;95.42;100194.64;1690857;84;25781;-76
2022/11/05 08:49:44;;;;;;;47.83;26.65;;;;;;;11.18;95.43;100190.63;1711040;83;25838;-76
2022/11/05 08:52:10;;;;;;;41.37;26.35;;;;;;;11.22;95.57;100192.70;1684974;84;25916;-76
2022/11/05 08:54:36;;;;;;;42.98;26.05;;;;;;;11.26;95.71;100202.50;1715433;82;28344;-76
2022/11/05 08:57:03;;;;;;;52.27;28.98;;;;;;;11.30;95.62;100210.45;1706840;83;43195;-77
2022/11/05 08:59:30;;;;;;;42.10;26.12;;;;;;;11.31;95.48;100212.93;1702869;83;25700;-76
2022/11/05 09:01:56;;;;;;;40.65;26.15;;;;;;;11.31;95.40;100219.63;1699205;82;26294;-76
2022/11/05 09:04:22;;;;;;;40.55;24.30;;;;;;;11.32;95.47;100230.69;1705084;83;25741;-76
2022/11/05 09:06:49;;;;;;;40.12;23.50;;;;;;;11.32;95.41;100230.69;1713072;83;27436;-76
2022/11/05 09:09:15;;;;;;;36.15;23.30;;;;;;;11.33;95.53;100225.62;1685642;83;25328;-76
2022/11/05 09:11:41;;;;;;;38.15;23.65;;;;;;;11.36;95.51;100231.10;1669305;84;25845;-76
2022/11/05 09:14:08;;;;;;;36.85;23.75;;;;;;;11.38;95.58;100224.52;1695030;84;25880;-76
2022/11/05 09:16:35;;;;;;;36.95;22.65;;;;;;;11.41;95.50;100235.36;1697380;84;25747;-76
2022/11/05 09:19:04;;;;;;;36.20;23.38;;;;;;;11.42;95.46;100241.86;1687322;84;27474;-76
2022/11/05 09:21:30;;;;;;;36.42;23.20;;;;;;;11.45;95.49;100241.97;1698376;84;25972;-76
2022/11/05 09:23:57;;;;;;;36.17;22.75;;;;;;;11.46;95.53;100239.62;1696381;84;25774;-76
2022/11/05 09:26:23;;;;;;;38.20;23.07;;;;;;;11.48;95.58;100235.68;1696956;84;26240;-76
2022/11/05 09:28:49;;;;;;;32.23;21.90;;;;;;;11.51;95.56;100241.16;1696913;84;25907;-76
2022/11/05 09:31:15;;;;;;;36.30;24.05;;;;;;;11.53;95.61;100244.47;1697442;84;27439;-76
2022/11/05 09:33:42;;;;;;;36.77;24.00;;;;;;;11.54;95.64;100245.62;1685274;84;25857;-76
2022/11/05 09:36:08;;;;;;;34.63;23.07;;;;;;;11.56;95.72;100248.94;1691458;84;25807;-76
2022/11/05 09:38:35;;;;;;;36.05;23.22;;;;;;;11.58;95.78;100252.25;1695814;84;25790;-76
2022/11/05 09:41:16;;;;;;;41.83;24.40;;;;;;;11.60;95.83;100251.53;1693773;84;25831;-76
2022/11/05 09:43:53;;;;;;;40.73;24.37;;;;;;;11.60;95.96;100259.58;1703716;83;27661;-77
2022/11/05 09:46:30;;;;;;;41.28;24.60;;;;;;;11.59;96.15;100269.98;1706709;83;25981;-77
2022/11/05 09:49:04;;;;;;;39.30;23.27;;;;;;;11.59;96.31;100265.95;1713306;82;26402;-76
2022/11/05 09:51:31;;;;;;;41.23;24.02;;;;;;;11.60;96.42;100272.98;1714087;82;26077;-77
2022/11/05 09:54:01;;;;;;;36.25;23.18;;;;;;;11.62;96.60;100270.92;1710217;83;26481;-77
2022/11/05 09:56:31;;;;;;;39.98;24.32;;;;;;;11.64;96.88;100282.80;1707279;82;27633;-77
2022/11/05 09:59:05;;;;;;;35.45;23.47;;;;;;;11.65;97.22;100286.61;1709086;82;26405;-77
2022/11/05 10:01:35;;;;;;;38.58;24.52;;;;;;;11.65;97.35;100294.66;1712110;82;25824;-77
2022/11/05 10:04:09;;;;;;;45.38;25.77;;;;;;;11.66;97.60;100291.47;1719096;82;25805;-77
2022/11/05 10:06:41;;;;;;;38.83;24.65;;;;;;;11.68;97.83;100291.28;1717742;82;26474;-77
2022/11/05 10:09:22;;;;;;;43.25;24.30;;;;;;;11.67;97.98;100295.02;1715811;82;27652;-77
2022/11/05 10:11:52;;;;;;;;;;;;;;;11.64;98.17;100295.70;1716606;82;26000;-77
2022/11/05 10:14:30;;;;;;;43.35;24.02;;;;;;;11.62;98.35;100306.31;1719734;82;25813;-77
2022/11/05 10:17:14;;;;;;;39.90;24.10;;;;;;;11.60;98.59;100301.66;1718117;82;25762;-77
2022/11/05 10:19:55;;;;;;;41.77;26.20;;;;;;;11.62;98.83;100300.44;1712228;82;25745;-77
2022/11/05 10:22:21;;;;;;;43.50;24.50;;;;;;;11.64;98.92;100314.48;1704717;83;28317;-77
2022/11/05 10:24:50;;;;;;;47.27;26.85;;;;;;;11.64;98.99;100313.14;1706583;82;25959;-77
2022/11/05 10:27:30;;;;;;;41.55;26.05;;;;;;;11.63;99.03;100314.15;1710883;83;25908;-77
2022/11/05 10:29:56;;;;;;;45.57;26.80;;;;;;;11.67;99.24;100311.95;1709175;82;25910;-77
2022/11/05 10:32:27;;;;;;;52.10;28.77;;;;;;;11.68;99.32;100316.77;1700191;84;25807;-77
2022/11/05 10:34:56;;;;;;;;;;;;;;;11.68;99.35;100316.77;1702754;84;26960;-77
2022/11/05 10:37:23;;;;;;;45.60;28.35;;;;;;;11.70;99.44;100318.23;1674894;84;25885;-77
2022/11/05 10:39:50;;;;;;;52.43;29.52;;;;;;;11.69;99.46;100319.78;1694806;84;25857;-77
2022/11/05 10:42:28;;;;;;;43.52;28.42;;;;;;;11.72;99.57;100325.56;1700525;83;25750;-77
2022/11/05 10:45:23;;;;;;;49.40;29.60;;;;;;;11.76;99.54;100324.13;1697715;84;25942;-77
2022/11/05 10:47:58;;;;;;;45.92;29.27;;;;;;;11.81;99.57;100320.34;1702645;84;27476;-77
2022/11/05 10:50:28;;;;;;;49.00;30.70;;;;;;;11.84;99.54;100328.00;1696163;84;26481;-77
2022/11/05 10:53:02;;;;;;;48.75;31.35;;;;;;;11.86;99.47;100319.74;1695165;84;26267;-77
2022/11/05 10:55:39;;;;;;;47.70;30.02;;;;;;;11.88;99.40;100319.86;1701274;84;25767;-77
2022/11/05 10:58:19;;;;;;;50.67;30.82;;;;;;;11.89;99.36;100319.36;1692174;84;25821;-77
2022/11/05 11:00:54;;;;;;;48.40;29.90;;;;;;;11.92;99.39;100322.95;1687133;84;27464;-77
2022/11/05 11:03:46;;;;;;;47.98;30.57;;;;;;;11.94;99.41;100328.95;1699397;84;26449;-77
2022/11/05 11:06:26;;;;;;;47.83;30.77;;;;;;;11.96;99.31;100339.80;1697144;84;26005;-76
2022/11/05 11:08:59;;;;;;;47.08;31.02;;;;;;;11.97;99.26;100343.32;1689745;84;26157;-76
2022/11/05 11:11:41;;;;;;;47.75;30.25;;;;;;;11.97;99.20;100344.66;1697692;84;26767;-76
2022/11/05 11:14:19;;;;;;;55.17;30.88;;;;;;;11.97;99.27;100345.50;1698044;84;27471;-76
2022/11/05 11:16:56;;;;;;;45.05;29.63;;;;;;;11.95;98.93;100355.61;1709684;83;25777;-76
2022/11/05 11:19:25;;;;;;;43.58;27.77;;;;;;;11.93;98.96;100354.16;1713594;82;25801;-76
2022/11/05 11:22:05;;;;;;;50.58;29.63;;;;;;;11.90;98.88;100354.55;1711584;83;25738;-76
2022/11/05 11:24:42;;;;;;;48.50;28.05;;;;;;;11.87;98.80;100358.45;1710124;82;30173;-76
2022/11/05 11:27:16;;;;;;;44.58;26.80;;;;;;;11.87;98.77;100369.72;1717902;82;27467;-76
2022/11/05 11:29:48;;;;;;;44.40;26.95;;;;;;;11.84;98.67;100368.27;1682189;84;26022;-76
2022/11/05 11:32:18;;;;;;;46.23;26.75;;;;;;;11.78;98.48;100364.20;1703934;82;25386;-76
2022/11/05 11:34:49;;;;;;;43.08;27.35;;;;;;;11.77;98.67;100366.56;1711294;83;25798;-76
2022/11/05 11:37:23;;;;;;;43.02;27.15;;;;;;;11.79;98.84;100367.19;1698916;83;32535;-76
2022/11/05 11:39:57;;;;;;;41.28;26.65;;;;;;;11.81;98.95;100366.47;1705795;82;28608;-76
2022/11/05 11:42:30;;;;;;;39.10;25.92;;;;;;;11.83;98.98;100372.47;1712435;82;25796;-76
2022/11/05 11:45:02;;;;;;;39.48;26.42;;;;;;;11.85;99.01;100369.90;1714144;82;25742;-76
2022/11/05 11:47:29;;;;;;;43.23;25.97;;;;;;;11.87;98.97;100375.89;1719539;82;25771;-77
2022/11/05 11:50:00;;;;;;;49.42;27.15;;;;;;;11.87;99.05;100370.53;1685634;83;25833;-76
2022/11/05 11:52:31;;;;;;;44.60;27.35;;;;;;;11.88;99.05;100381.59;1685826;84;27476;-76
2022/11/05 11:55:14;;;;;;;;;;;;;;;11.89;98.97;100379.20;1671707;83;25812;-76
2022/11/05 11:57:48;;;;;;;39.88;26.20;;;;;;;11.90;98.98;100384.06;1711470;82;25755;-76
2022/11/05 12:00:16;;;;;;;35.08;24.35;;;;;;;11.89;99.01;100375.72;1707437;82;26386;-76
2022/11/05 12:03:06;;;;;;;38.45;25.45;;;;;;;11.86;98.87;100372.08;1698576;83;26367;-76
2022/11/05 12:05:59;;;;;;;36.85;25.37;;;;;;;11.84;98.77;100372.80;1709054;82;27484;-76
2022/11/05 12:09:02;;;;;;;39.10;24.47;;;;;;;11.83;98.87;100368.44;1704291;83;25755;-76
2022/11/05 12:11:40;;;;;;;35.13;23.87;;;;;;;11.83;99.09;100373.80;1680182;83;25759;-77
2022/11/05 12:14:25;;;;;;;34.63;22.02;;;;;;;11.80;99.02;100375.56;1706484;82;25762;-76
2022/11/05 12:17:09;;;;;;;34.73;22.02;;;;;;;11.81;99.07;100386.09;1697257;84;25792;-76
2022/11/05 12:20:21;;;;;;;39.30;24.57;;;;;;;11.79;99.14;100387.31;1694971;84;27448;-76